Time;durP1;ratioP1;P1;durP2;ratioP2;P2;SDS_P1;SDS_P2;PMS_P1;PMS_P2;Temp;Humidity;BMP_temperature;BMP_pressure;BME280_temperature;BME280_humidity;BME280_pressure;Samples;Min_cycle;Max_cycle;Signal;HPM_P1;HPM_P2
2021/03/25 00:01:27;;;;;;;149.25;67.97;;;2.20;99.90;;;;;;5094133;28;20036;-69
2021/03/25 00:03:55;;;;;;;132.18;64.15;;;2.20;99.90;;;;;;5094257;28;20031;-70
2021/03/25 00:06:22;;;;;;;125.05;60.83;;;2.20;99.90;;;;;;5094145;28;20024;-68
2021/03/25 00:08:48;;;;;;;120.33;58.53;;;2.00;99.90;;;;;;5093872;28;20105;-70
2021/03/25 00:14:36;;;;;;;99.50;51.90;;;1.90;99.90;;;;;;5073029;28;20384;-69
2021/03/25 00:17:02;;;;;;;139.80;64.37;;;1.70;99.90;;;;;;5072680;28;20037;-70
2021/03/25 00:19:28;;;;;;;125.93;58.87;;;1.70;99.90;;;;;;5054744;28;20032;-68
2021/03/25 00:21:54;;;;;;;121.03;57.30;;;1.80;99.90;;;;;;5054718;28;20039;-68
2021/03/25 00:24:20;;;;;;;120.07;55.23;;;1.80;99.90;;;;;;5054781;28;20025;-69
2021/03/25 00:26:47;;;;;;;120.93;56.00;;;1.80;99.90;;;;;;5054841;28;20111;-69
2021/03/25 00:29:15;;;;;;;113.70;52.50;;;1.90;99.90;;;;;;5073094;28;20043;-69
2021/03/25 00:31:42;;;;;;;106.20;52.10;;;1.90;99.90;;;;;;5054644;28;20024;-70
2021/03/25 00:34:09;;;;;;;107.87;52.77;;;1.80;99.90;;;;;;5072586;28;20032;-68
2021/03/25 00:36:35;;;;;;;108.63;52.90;;;1.80;99.90;;;;;;5072705;28;20081;-70
2021/03/25 00:39:01;;;;;;;109.30;52.17;;;1.80;99.90;;;;;;5072578;28;20029;-68
2021/03/25 00:41:28;;;;;;;98.70;49.17;;;1.70;99.90;;;;;;5072590;28;20036;-71
2021/03/25 00:43:54;;;;;;;105.77;47.70;;;1.60;99.90;;;;;;5054577;28;20115;-70
2021/03/25 00:46:21;;;;;;;96.90;47.00;;;1.60;99.90;;;;;;5054604;28;20055;-70
2021/03/25 00:48:47;;;;;;;100.17;47.67;;;1.60;99.90;;;;;;5072511;28;20551;-69
2021/03/25 00:51:13;;;;;;;100.30;48.67;;;1.60;99.90;;;;;;5072428;28;20036;-70
2021/03/25 00:53:39;;;;;;;102.97;48.90;;;1.60;99.90;;;;;;5071030;28;20032;-68
2021/03/25 00:56:06;;;;;;;106.23;51.70;;;1.60;99.90;;;;;;5071028;28;20039;-71
2021/03/25 00:58:32;;;;;;;99.33;47.10;;;1.60;99.90;;;;;;5072264;28;20028;-71
2021/03/25 01:00:59;;;;;;;94.50;46.97;;;1.60;99.90;;;;;;5072058;28;20036;-69
2021/03/25 01:03:27;;;;;;;101.73;47.80;;;1.50;99.90;;;;;;5054338;28;20061;-70
2021/03/25 01:05:53;;;;;;;103.23;48.23;;;1.50;99.90;;;;;;5054163;28;20035;-71
2021/03/25 01:08:20;;;;;;;103.07;49.53;;;1.50;99.90;;;;;;5072254;28;20017;-71
2021/03/25 01:23:55;;;;;;;99.50;46.63;;;1.40;99.90;;;;;;5151737;27;20351;-72
2021/03/25 01:26:21;;;;;;;100.17;46.30;;;1.20;99.90;;;;;;5150507;27;20031;-73
2021/03/25 01:28:47;;;;;;;105.87;48.83;;;1.20;99.90;;;;;;5151895;27;20072;-70
2021/03/25 01:31:13;;;;;;;104.23;47.17;;;1.20;99.90;;;;;;5151875;27;20031;-71
2021/03/25 01:33:39;;;;;;;117.80;48.87;;;1.20;99.90;;;;;;5151795;27;20068;-71
2021/03/25 01:36:05;;;;;;;101.97;46.47;;;1.20;99.90;;;;;;5151685;27;20055;-73
2021/03/25 01:38:31;;;;;;;97.13;45.23;;;1.20;99.90;;;;;;5150529;27;20110;-71
2021/03/25 01:40:59;;;;;;;98.50;45.00;;;1.20;99.90;;;;;;5151678;27;20462;-71
2021/03/25 01:43:40;;;;;;;93.83;45.07;;;1.20;99.90;;;;;;5151647;27;20037;-72
2021/03/25 01:46:18;;;;;;;92.33;44.13;;;1.20;99.90;;;;;;5151558;27;20466;-73
2021/03/25 01:48:47;;;;;;;94.23;44.13;;;1.20;99.90;;;;;;5150292;27;20301;-72
2021/03/25 01:51:44;;;;;;;92.33;45.07;;;1.10;99.90;;;;;;5151512;27;20030;-71
2021/03/25 01:54:17;;;;;;;95.53;43.37;;;1.00;99.90;;;;;;5151783;27;20089;-71
2021/03/25 01:57:16;;;;;;;108.07;46.97;;;1.10;99.90;;;;;;5150327;27;20044;-71
2021/03/25 02:00:20;;;;;;;99.63;47.30;;;1.20;99.90;;;;;;5150046;27;20107;-72
2021/03/25 02:03:01;;;;;;;85.57;42.57;;;1.20;99.90;;;;;;5149872;27;20539;-72
2021/03/25 02:05:44;;;;;;;80.38;40.25;;;1.20;99.90;;;;;;5149687;27;20041;-73
2021/03/25 02:08:51;;;;;;;79.43;40.37;;;1.20;99.90;;;;;;5151403;27;20041;-72
2021/03/25 02:11:42;;;;;;;81.97;38.80;;;1.20;99.90;;;;;;5150487;27;20039;-72
2021/03/25 02:14:26;;;;;;;84.77;42.30;;;1.20;99.90;;;;;;5151080;27;20020;-72
2021/03/25 02:17:04;;;;;;;77.80;40.27;;;1.20;99.90;;;;;;5151033;27;20023;-72
2021/03/25 02:19:32;;;;;;;88.03;44.20;;;1.30;99.90;;;;;;5149664;27;20117;-72
2021/03/25 02:22:09;;;;;;;83.10;41.97;;;1.20;99.90;;;;;;5153863;27;20109;-72
2021/03/25 02:24:44;;;;;;;85.97;42.30;;;1.20;99.90;;;;;;5158105;27;20129;-72
2021/03/25 02:27:31;;;;;;;84.50;41.40;;;1.20;99.90;;;;;;5157817;27;20058;-72
2021/03/25 02:30:07;;;;;;;82.40;42.00;;;1.20;99.90;;;;;;5156628;27;20027;-72
2021/03/25 02:32:37;;;;;;;83.47;40.53;;;1.20;99.90;;;;;;5156578;27;20033;-73
2021/03/25 02:35:14;;;;;;;88.53;44.27;;;1.20;99.90;;;;;;5157549;27;20055;-71
2021/03/25 02:37:45;;;;;;;93.63;45.73;;;1.20;99.90;;;;;;5156201;27;20026;-72
2021/03/25 02:40:21;;;;;;;88.00;44.67;;;1.10;99.90;;;;;;5156167;27;20474;-72
2021/03/25 02:43:03;;;;;;;101.77;46.40;;;1.10;99.90;;;;;;5157444;27;20148;-70
2021/03/25 02:45:32;;;;;;;98.27;46.90;;;1.10;99.90;;;;;;5157432;27;20067;-72
2021/03/25 02:48:13;;;;;;;100.97;49.13;;;1.10;99.90;;;;;;5158213;27;20062;-72
2021/03/25 02:50:46;;;;;;;101.88;46.53;;;1.10;99.90;;;;;;5157486;27;20027;-71
2021/03/25 02:53:34;;;;;;;98.53;45.73;;;1.10;99.90;;;;;;5155950;27;20417;-73
2021/03/25 02:56:41;;;;;;;87.60;43.87;;;1.10;99.90;;;;;;5157241;27;20043;-73
2021/03/25 02:59:29;;;;;;;96.47;45.03;;;1.10;99.90;;;;;;5157396;27;20091;-72
2021/03/25 03:02:08;;;;;;;92.73;43.80;;;1.10;99.90;;;;;;5156757;27;20054;-72
2021/03/25 03:04:37;;;;;;;90.60;41.77;;;1.10;99.90;;;;;;5155747;27;20038;-72
2021/03/25 03:07:07;;;;;;;88.30;42.30;;;1.10;99.90;;;;;;5157210;27;20030;-73
2021/03/25 03:09:42;;;;;;;95.10;42.10;;;1.10;99.90;;;;;;5156916;27;20048;-72
2021/03/25 03:12:25;;;;;;;101.70;45.20;;;1.20;99.90;;;;;;5155610;27;20027;-71
2021/03/25 03:15:22;;;;;;;98.10;45.07;;;1.20;99.90;;;;;;5155499;27;20027;-73
2021/03/25 03:17:55;;;;;;;91.30;43.90;;;1.20;99.90;;;;;;5156781;27;20466;-73
2021/03/25 03:20:25;;;;;;;98.20;44.63;;;1.20;99.90;;;;;;5155408;27;20048;-74
2021/03/25 03:22:53;;;;;;;100.87;45.20;;;1.20;99.90;;;;;;5156304;27;20504;-73
2021/03/25 03:25:22;;;;;;;97.50;45.17;;;1.10;99.90;;;;;;5155269;27;20022;-71
2021/03/25 03:27:58;;;;;;;91.17;44.47;;;1.10;99.90;;;;;;5156543;27;20470;-74
2021/03/25 03:30:29;;;;;;;95.17;44.70;;;1.10;99.90;;;;;;5156847;27;20037;-73
2021/03/25 03:33:04;;;;;;;94.57;44.63;;;1.10;99.90;;;;;;5155198;27;20026;-74
2021/03/25 03:35:36;;;;;;;97.40;46.50;;;1.00;99.90;;;;;;5154155;27;20030;-72
2021/03/25 03:38:07;;;;;;;97.70;46.13;;;1.00;99.90;;;;;;5156378;27;20030;-71
2021/03/25 03:40:41;;;;;;;96.70;47.37;;;1.00;99.90;;;;;;5155045;27;20459;-70
2021/03/25 03:43:12;;;;;;;102.43;46.20;;;1.00;99.90;;;;;;5154931;27;20030;-74
2021/03/25 03:46:01;;;;;;;97.50;45.33;;;1.00;99.90;;;;;;5154959;27;20035;-69
2021/03/25 03:48:53;;;;;;;106.40;47.80;;;1.00;99.90;;;;;;5153679;27;20255;-71
2021/03/25 03:51:24;;;;;;;100.70;46.60;;;1.00;99.90;;;;;;5154781;27;20027;-73
2021/03/25 03:53:50;;;;;;;97.43;45.80;;;1.00;99.90;;;;;;5156125;27;20071;-73
2021/03/25 03:56:48;;;;;;;92.90;44.43;;;1.10;99.90;;;;;;5154652;27;20034;-71
2021/03/25 03:59:30;;;;;;;99.17;44.57;;;1.00;99.90;;;;;;5154629;27;20042;-72
2021/03/25 04:02:07;;;;;;;89.28;42.58;;;1.00;99.90;;;;;;5156140;27;20398;-72
2021/03/25 04:04:39;;;;;;;83.80;40.87;;;1.00;99.90;;;;;;5155886;27;20031;-73
2021/03/25 04:07:06;;;;;;;;;;;1.00;99.90;;;;;;5156332;27;20462;-69
2021/03/25 04:09:46;;;;;;;92.53;43.67;;;1.00;99.90;;;;;;5155750;27;20274;-71
2021/03/25 04:12:21;;;;;;;108.37;49.83;;;1.00;99.90;;;;;;5155794;27;20027;-72
2021/03/25 04:14:57;;;;;;;110.37;48.00;;;1.00;99.90;;;;;;5155928;27;20109;-70
2021/03/25 04:17:32;;;;;;;146.03;60.23;;;1.00;99.90;;;;;;5155898;27;20048;-71
2021/03/25 04:20:03;;;;;;;129.90;59.70;;;1.00;99.90;;;;;;5154227;27;20072;-71
2021/03/25 04:22:36;;;;;;;120.38;52.92;;;1.00;99.90;;;;;;5155297;27;20047;-69
2021/03/25 04:25:11;;;;;;;147.83;64.67;;;1.00;99.90;;;;;;5155528;27;20049;-70
2021/03/25 04:27:51;;;;;;;141.60;68.63;;;1.00;99.90;;;;;;5154049;27;20046;-71
2021/03/25 04:30:23;;;;;;;127.47;58.57;;;1.00;99.90;;;;;;5155426;27;20490;-71
2021/03/25 04:32:50;;;;;;;115.07;53.17;;;0.90;99.90;;;;;;5155415;27;20083;-71
2021/03/25 04:35:17;;;;;;;110.37;52.70;;;1.00;99.90;;;;;;5155313;27;20030;-72
2021/03/25 04:37:45;;;;;;;109.97;54.47;;;1.00;99.90;;;;;;5153896;27;20018;-73
2021/03/25 04:40:19;;;;;;;102.33;48.53;;;0.90;99.90;;;;;;5153919;27;20433;-71
2021/03/25 04:42:46;;;;;;;117.37;48.77;;;0.80;99.90;;;;;;5153820;27;20045;-71
2021/03/25 04:45:56;;;;;;;111.50;47.80;;;0.80;99.90;;;;;;5155117;27;20055;-71
2021/03/25 04:48:25;;;;;;;107.00;48.97;;;0.90;99.90;;;;;;5155009;27;20485;-71
2021/03/25 04:51:19;;;;;;;110.13;48.87;;;1.00;99.90;;;;;;5153656;27;20018;-73
2021/03/25 04:53:46;;;;;;;121.13;49.60;;;1.00;99.90;;;;;;5143587;27;20035;-72
2021/03/25 04:56:23;;;;;;;113.53;48.90;;;1.00;99.90;;;;;;5153270;27;20083;-69
2021/03/25 04:58:54;;;;;;;106.43;49.33;;;1.00;99.90;;;;;;5155286;27;20058;-71
2021/03/25 05:01:22;;;;;;;114.13;53.30;;;0.90;99.90;;;;;;5154567;27;20447;-69
2021/03/25 05:03:53;;;;;;;120.53;54.00;;;0.90;99.90;;;;;;5154844;27;20098;-71
2021/03/25 05:06:39;;;;;;;107.60;52.75;;;0.90;99.90;;;;;;5153799;27;20403;-72
2021/03/25 05:09:05;;;;;;;110.30;50.93;;;0.90;99.90;;;;;;5153451;27;20033;-72
2021/03/25 05:11:31;;;;;;;107.60;50.73;;;0.90;99.90;;;;;;5153402;27;20031;-71
2021/03/25 05:13:59;;;;;;;133.50;60.57;;;1.00;99.90;;;;;;5153357;27;20071;-69
2021/03/25 05:16:33;;;;;;;153.67;66.27;;;1.00;99.90;;;;;;5154800;27;20047;-72
2021/03/25 05:19:13;;;;;;;159.00;66.77;;;1.10;99.90;;;;;;5154779;27;20023;-71
2021/03/25 05:21:58;;;;;;;175.37;68.67;;;1.10;99.90;;;;;;5154649;27;20031;-69
2021/03/25 05:24:29;;;;;;;224.63;86.77;;;1.10;99.90;;;;;;5154739;27;20047;-70
2021/03/25 05:27:00;;;;;;;235.40;91.88;;;1.10;99.90;;;;;;5153396;27;20029;-70
2021/03/25 05:29:28;;;;;;;178.57;78.27;;;1.10;99.90;;;;;;5153403;27;20142;-71
2021/03/25 05:31:54;;;;;;;178.97;73.50;;;1.10;99.90;;;;;;5154661;27;20056;-69
2021/03/25 05:34:22;;;;;;;162.50;69.03;;;1.20;99.90;;;;;;5154613;27;20101;-70
2021/03/25 05:36:54;;;;;;;137.97;59.33;;;1.20;99.90;;;;;;5154544;27;20057;-71
2021/03/25 05:39:20;;;;;;;141.50;60.03;;;1.30;99.90;;;;;;5154801;27;20033;-70
2021/03/25 05:41:54;;;;;;;138.43;62.67;;;1.40;99.90;;;;;;5153071;27;20031;-70
2021/03/25 05:44:44;;;;;;;149.73;61.27;;;1.30;99.90;;;;;;5154819;27;20023;-69
2021/03/25 05:47:22;;;;;;;163.07;65.70;;;1.40;99.90;;;;;;5154016;27;20053;-69
2021/03/25 05:50:14;;;;;;;116.83;54.73;;;1.50;99.90;;;;;;5154127;27;20070;-71
2021/03/25 05:53:07;;;;;;;104.35;50.95;;;1.50;99.90;;;;;;5154498;27;20062;-69
2021/03/25 05:55:52;;;;;;;136.23;57.63;;;1.60;99.90;;;;;;5154702;27;20023;-68
2021/03/25 05:58:43;;;;;;;150.57;61.87;;;1.70;99.90;;;;;;5153475;27;20023;-72
2021/03/25 06:01:35;;;;;;;151.00;61.47;;;1.80;99.90;;;;;;5158015;27;20019;-70
2021/03/25 06:04:20;;;;;;;143.10;60.97;;;1.80;99.90;;;;;;5156874;27;20368;-71
2021/03/25 06:10:13;;;;;;;120.85;56.88;;;2.00;99.90;;;;;;5157337;27;20034;-68
2021/03/25 06:12:45;;;;;;;114.07;56.90;;;2.10;99.90;;;;;;5157862;27;20053;-71
2021/03/25 06:15:29;;;;;;;121.63;55.70;;;2.20;99.90;;;;;;5156606;27;20031;-69
2021/03/25 06:24:54;;;;;;;89.75;45.05;;;2.60;99.90;;;;;;5155453;27;20126;-70
2021/03/25 06:27:41;;;;;;;78.43;41.33;;;2.80;99.90;;;;;;5157810;27;20038;-71
2021/03/25 06:30:15;;;;;;;84.27;41.90;;;3.00;99.90;;;;;;5157631;27;20037;-70
2021/03/25 06:33:03;;;;;;;87.73;42.43;;;3.00;99.90;;;;;;5156342;27;20038;-72
2021/03/25 06:35:47;;;;;;;92.00;46.33;;;3.10;99.90;;;;;;5157376;27;20023;-70
2021/03/25 06:38:19;;;;;;;83.00;43.80;;;3.20;99.90;;;;;;5157544;27;20026;-73
2021/03/25 06:40:57;;;;;;;81.22;42.33;;;3.40;99.90;;;;;;5157025;27;20356;-72
2021/03/25 06:43:37;;;;;;;64.17;35.83;;;3.50;99.90;;;;;;5157034;27;20055;-73
2021/03/25 06:46:25;;;;;;;65.90;36.90;;;3.60;99.90;;;;;;5155492;27;20031;-70
2021/03/25 06:48:56;;;;;;;63.05;32.67;;;3.80;99.90;;;;;;5157037;27;20450;-68
2021/03/25 06:51:31;;;;;;;69.82;35.05;;;3.90;99.90;;;;;;5149275;27;20464;-71
2021/03/25 06:54:21;;;;;;;70.53;35.87;;;4.00;99.90;;;;;;5136384;27;20038;-71
2021/03/25 06:56:50;;;;;;;72.75;37.28;;;4.10;99.90;;;;;;5153317;27;20517;-71
2021/03/25 06:59:33;;;;;;;67.07;36.05;;;4.30;99.90;;;;;;5141187;27;20046;-70
2021/03/25 07:02:08;;;;;;;68.15;36.33;;;4.40;99.90;;;;;;5136066;27;20382;-70
2021/03/25 07:04:40;;;;;;;70.57;35.40;;;4.60;99.90;;;;;;5135891;27;20027;-71
2021/03/25 07:07:16;;;;;;;58.00;31.60;;;4.80;99.90;;;;;;5134611;27;20486;-66
2021/03/25 07:09:42;;;;;;;51.70;29.52;;;4.80;99.90;;;;;;5134676;27;20030;-68
2021/03/25 07:12:36;;;;;;;54.55;30.13;;;4.90;99.90;;;;;;5136086;27;20035;-69
2021/03/25 07:15:04;;;;;;;48.25;28.17;;;5.10;99.90;;;;;;5133729;27;20038;-69
2021/03/25 07:17:39;;;;;;;47.88;27.67;;;5.20;99.20;;;;;;5135995;27;20035;-71
2021/03/25 07:20:26;;;;;;;51.58;31.02;;;5.20;99.80;;;;;;5136036;27;20375;-69
2021/03/25 07:23:08;;;;;;;49.75;29.33;;;5.30;99.90;;;;;;5134138;27;20055;-70
2021/03/25 07:25:40;;;;;;;47.53;28.95;;;5.30;98.90;;;;;;5135131;27;20023;-68
2021/03/25 07:28:24;;;;;;;50.38;27.15;;;5.50;99.80;;;;;;5136617;27;20027;-72
2021/03/25 07:30:51;;;;;;;52.33;29.48;;;5.80;99.80;;;;;;5135449;27;20468;-74
2021/03/25 07:33:20;;;;;;;46.58;27.58;;;5.90;98.50;;;;;;5134389;27;20039;-71
2021/03/25 07:35:50;;;;;;;43.92;26.10;;;6.10;98.10;;;;;;5134311;27;20060;-72
2021/03/25 07:38:24;;;;;;;50.33;26.48;;;6.30;97.10;;;;;;5134318;27;20027;-72
2021/03/25 07:41:07;;;;;;;47.90;29.33;;;6.40;96.80;;;;;;5135425;27;20024;-73
2021/03/25 07:44:04;;;;;;;47.95;28.30;;;6.60;95.50;;;;;;5132851;27;20023;-73
2021/03/25 07:46:51;;;;;;;49.40;29.33;;;6.80;96.20;;;;;;5136716;27;20442;-74
2021/03/25 07:49:21;;;;;;;43.20;25.77;;;7.00;95.10;;;;;;5133933;27;20027;-71
2021/03/25 07:51:53;;;;;;;45.92;28.38;;;7.10;94.60;;;;;;5134037;27;20030;-75
2021/03/25 07:54:24;;;;;;;49.10;28.70;;;7.30;94.50;;;;;;5135286;27;20065;-72
2021/03/25 07:57:13;;;;;;;44.85;25.92;;;7.40;95.30;;;;;;5133985;27;20023;-69
2021/03/25 07:59:42;;;;;;;46.72;27.02;;;7.50;93.00;;;;;;5133831;27;20023;-75
2021/03/25 08:02:22;;;;;;;50.30;28.10;;;7.40;93.80;;;;;;5134926;27;20023;-74
2021/03/25 08:04:49;;;;;;;43.45;26.60;;;7.50;93.00;;;;;;5134984;27;20076;-72
2021/03/25 08:07:14;;;;;;;43.10;26.65;;;7.70;93.20;;;;;;5134567;27;20387;-73
2021/03/25 08:09:53;;;;;;;46.03;27.60;;;7.70;93.00;;;;;;5133639;27;20019;-71
2021/03/25 08:12:40;;;;;;;40.88;24.58;;;7.90;92.80;;;;;;5133522;27;20467;-74
2021/03/25 08:15:48;;;;;;;44.28;26.65;;;7.90;91.50;;;;;;5135024;27;20019;-70
2021/03/25 08:18:29;;;;;;;44.85;25.20;;;8.00;91.70;;;;;;5034308;28;20115;-71
2021/03/25 08:20:58;;;;;;;43.80;26.35;;;8.20;92.10;;;;;;5054352;28;20020;-74
2021/03/25 08:23:55;;;;;;;46.85;26.85;;;8.30;93.30;;;;;;5101907;27;20050;-74
2021/03/25 08:26:43;;;;;;;40.08;25.30;;;8.60;92.60;;;;;;5134726;27;20035;-68
2021/03/25 08:29:18;;;;;;;46.28;26.13;;;9.00;92.20;;;;;;5132938;27;20038;-69
2021/03/25 08:32:11;;;;;;;44.22;25.63;;;9.00;90.00;;;;;;5134034;27;20063;-67
2021/03/25 08:35:01;;;;;;;39.70;24.25;;;9.10;90.00;;;;;;5134303;27;20558;-74
2021/03/25 08:38:13;;;;;;;48.08;26.80;;;9.20;89.60;;;;;;5134497;27;20111;-72
2021/03/25 08:40:53;;;;;;;46.00;26.90;;;9.60;89.40;;;;;;5133874;27;20048;-69
2021/03/25 08:43:35;;;;;;;49.25;27.67;;;9.70;90.40;;;;;;5154764;27;20488;-71
2021/03/25 08:46:08;;;;;;;48.95;27.15;;;9.90;88.60;;;;;;5155146;27;20023;-72
2021/03/25 08:48:53;;;;;;;46.92;26.83;;;10.10;89.40;;;;;;5153581;27;20079;-71
2021/03/25 08:51:30;;;;;;;38.75;23.30;;;10.30;88.00;;;;;;5155033;27;20123;-72
2021/03/25 08:54:02;;;;;;;41.78;25.40;;;10.40;84.10;;;;;;5154804;27;20038;-72
2021/03/25 08:56:41;;;;;;;39.55;24.83;;;10.40;84.60;;;;;;5154819;27;20026;-73
2021/03/25 08:59:27;;;;;;;40.75;23.92;;;10.50;80.30;;;;;;5154918;27;20038;-72
2021/03/25 09:02:13;;;;;;;38.67;25.08;;;10.30;77.00;;;;;;5153540;27;20130;-71
2021/03/25 09:04:56;;;;;;;39.03;25.52;;;10.60;81.00;;;;;;5154886;27;20066;-72
2021/03/25 09:07:23;;;;;;;44.30;26.73;;;11.00;77.70;;;;;;5153575;27;20486;-70
2021/03/25 09:09:54;;;;;;;38.38;24.70;;;10.90;78.00;;;;;;5153469;27;20027;-70
2021/03/25 09:12:24;;;;;;;38.63;25.53;;;;;;;;;;5154871;27;20031;-72
2021/03/25 09:14:51;;;;;;;41.10;24.73;;;11.20;74.00;;;;;;5154735;27;20027;-73
2021/03/25 09:17:23;;;;;;;40.15;26.15;;;11.40;75.50;;;;;;5153371;27;20087;-73
2021/03/25 09:19:53;;;;;;;41.40;25.83;;;11.50;74.00;;;;;;5152176;27;20033;-70
2021/03/25 09:22:40;;;;;;;37.05;24.27;;;11.70;72.40;;;;;;5154127;27;20404;-74
2021/03/25 09:25:25;;;;;;;34.42;23.17;;;11.70;73.50;;;;;;5154659;27;20038;-72
2021/03/25 09:28:20;;;;;;;40.05;25.23;;;11.90;72.00;;;;;;5154301;27;20034;-69
2021/03/25 09:31:10;;;;;;;37.40;25.38;;;12.20;71.20;;;;;;5153336;27;20019;-70
2021/03/25 09:33:49;;;;;;;34.28;21.35;;;11.90;69.40;;;;;;5155438;27;20034;-72
2021/03/25 09:36:18;;;;;;;33.95;22.05;;;11.90;67.80;;;;;;5159022;27;20455;-72
2021/03/25 09:39:10;;;;;;;30.85;18.08;;;11.50;68.20;;;;;;5158672;27;20066;-73
2021/03/25 09:41:35;;;;;;;;;;;11.20;67.30;;;;;;5159348;27;20018;-73
2021/03/25 09:44:10;;;;;;;31.75;19.55;;;12.10;69.40;;;;;;5157283;27;19930;-70
2021/03/25 09:46:54;;;;;;;34.17;19.60;;;11.90;65.70;;;;;;5158528;27;20058;-70
2021/03/25 09:49:27;;;;;;;32.33;20.75;;;11.30;66.70;;;;;;5157130;27;20107;-72
2021/03/25 09:52:08;;;;;;;29.42;18.23;;;11.10;67.60;;;;;;5158443;27;20026;-73
2021/03/25 09:54:52;;;;;;;22.42;15.40;;;12.00;67.10;;;;;;5156960;27;20037;-72
2021/03/25 09:57:31;;;;;;;22.70;14.48;;;12.40;60.20;;;;;;5158935;27;20022;-71
2021/03/25 10:00:06;;;;;;;27.25;16.92;;;13.10;59.20;;;;;;5160143;27;20070;-74
2021/03/25 10:02:41;;;;;;;25.08;17.55;;;13.50;60.10;;;;;;5158242;27;20118;-72
2021/03/25 10:05:25;;;;;;;18.92;13.13;;;12.90;59.90;;;;;;5156879;27;20038;-71
2021/03/25 10:08:00;;;;;;;19.15;12.05;;;12.90;56.20;;;;;;5158126;27;20034;-73
2021/03/25 10:10:49;;;;;;;14.80;10.60;;;13.60;52.80;;;;;;5158340;27;20029;-70
2021/03/25 10:13:41;;;;;;;18.35;12.10;;;14.00;51.40;;;;;;5140882;27;20110;-72
2021/03/25 10:16:35;;;;;;;18.95;13.13;;;14.10;50.90;;;;;;5157733;27;20034;-69
2021/03/25 10:19:05;;;;;;;16.13;11.45;;;13.60;52.30;;;;;;5157706;27;20031;-73
2021/03/25 10:24:56;;;;;;;22.50;14.77;;;13.70;53.50;;;;;;5146128;27;20057;-68
2021/03/25 10:27:37;;;;;;;20.30;13.73;;;13.60;55.50;;;;;;5143132;27;20050;-71
2021/03/25 10:30:23;;;;;;;20.75;14.45;;;13.80;54.30;;;;;;5157809;27;20025;-72
2021/03/25 10:32:50;;;;;;;36.00;22.38;;;13.90;55.10;;;;;;5155865;27;20440;-70
2021/03/25 10:35:25;;;;;;;18.65;12.70;;;14.60;52.90;;;;;;5156344;27;20023;-70
2021/03/25 10:37:53;;;;;;;29.00;16.48;;;15.50;48.90;;;;;;5156205;27;20030;-74
2021/03/25 10:40:36;;;;;;;66.25;32.22;;;16.20;49.60;;;;;;5137235;27;20027;-74
2021/03/25 10:43:12;;;;;;;62.55;33.10;;;17.10;46.40;;;;;;5157014;27;20113;-72
2021/03/25 10:45:45;;;;;;;92.00;47.85;;;;;;;;;;5156645;27;20026;-73
2021/03/25 10:48:28;;;;;;;21.25;13.05;;;17.00;43.80;;;;;;5155968;27;20370;-73
2021/03/25 10:50:59;;;;;;;26.58;14.95;;;17.30;43.30;;;;;;5155901;27;20130;-73
2021/03/25 10:53:34;;;;;;;10.40;8.52;;;18.20;41.40;;;;;;5155806;27;20037;-69
2021/03/25 10:56:12;;;;;;;15.77;9.82;;;18.10;36.60;;;;;;5157317;27;20023;-74
2021/03/25 10:58:41;;;;;;;9.63;6.70;;;19.10;37.90;;;;;;5156752;27;20027;-72
2021/03/25 11:01:29;;;;;;;15.43;8.85;;;20.00;32.30;;;;;;5155441;27;20026;-73
2021/03/25 11:03:55;;;;;;;9.93;7.30;;;20.00;33.10;;;;;;5156513;27;20060;-71
2021/03/25 11:06:25;;;;;;;9.85;7.22;;;20.50;31.00;;;;;;5156731;27;20101;-71
2021/03/25 11:08:52;;;;;;;10.63;7.22;;;;;;;;;;5156686;27;20042;-73
2021/03/25 11:11:24;;;;;;;23.25;14.13;;;17.50;33.40;;;;;;5155395;27;20087;-73
2021/03/25 11:14:03;;;;;;;15.80;11.77;;;16.30;40.30;;;;;;5156683;27;20090;-71
2021/03/25 11:16:31;;;;;;;14.88;10.55;;;15.10;43.60;;;;;;5156547;27;20056;-71
2021/03/25 11:19:01;;;;;;;21.58;11.88;;;14.80;46.00;;;;;;5156526;27;20454;-72
2021/03/25 11:21:34;;;;;;;21.38;10.65;;;14.10;46.70;;;;;;5155092;27;20030;-72
2021/03/25 11:24:07;;;;;;;19.63;10.40;;;13.70;45.50;;;;;;5154815;27;20061;-73
2021/03/25 11:26:34;;;;;;;18.50;12.25;;;13.60;47.30;;;;;;5156086;27;20031;-73
2021/03/25 11:29:01;;;;;;;21.35;11.45;;;13.60;47.20;;;;;;5154861;27;20030;-73
2021/03/25 11:31:31;;;;;;;18.75;10.73;;;13.70;47.00;;;;;;5136492;27;20027;-73
2021/03/25 11:33:58;;;;;;;14.93;11.25;;;13.70;47.90;;;;;;5147406;27;20027;-73
2021/03/25 11:36:45;;;;;;;15.27;10.10;;;18.50;37.80;;;;;;5154912;27;20030;-70
2021/03/25 11:39:18;;;;;;;13.35;8.98;;;18.70;38.60;;;;;;5155966;27;20030;-71
2021/03/25 11:41:46;;;;;;;9.98;7.57;;;18.20;36.30;;;;;;5144136;27;20072;-72
2021/03/25 11:44:34;;;;;;;9.02;6.75;;;19.90;32.30;;;;;;5135346;27;20114;-72
2021/03/25 11:47:38;;;;;;;41.00;23.30;;;22.10;29.20;;;;;;5135383;27;20037;-71
2021/03/25 11:50:30;;;;;;;13.75;9.23;;;22.60;28.40;;;;;;5133688;27;20023;-74
2021/03/25 11:52:59;;;;;;;32.47;20.23;;;22.90;28.00;;;;;;5137040;27;20109;-74
2021/03/25 11:55:32;;;;;;;53.90;26.60;;;23.70;27.90;;;;;;5155469;27;20038;-74
2021/03/25 11:58:18;;;;;;;10.30;7.45;;;24.00;28.20;;;;;;5154934;27;20075;-72
2021/03/25 12:01:04;;;;;;;12.93;7.95;;;22.90;27.40;;;;;;5155675;27;20027;-75
2021/03/25 12:03:46;;;;;;;12.50;8.75;;;23.30;27.70;;;;;;5155387;27;20031;-74
2021/03/25 12:06:26;;;;;;;9.82;8.00;;;23.40;27.80;;;;;;5154137;27;20027;-73
2021/03/25 12:09:13;;;;;;;11.80;8.82;;;24.20;27.10;;;;;;5153400;27;20075;-71
2021/03/25 12:11:41;;;;;;;11.80;8.52;;;25.90;28.20;;;;;;5155197;27;20037;-74
2021/03/25 12:14:08;;;;;;;11.27;8.40;;;;;;;;;;5153715;27;20058;-71
2021/03/25 12:16:37;;;;;;;11.77;8.02;;;24.50;27.40;;;;;;5155003;27;20083;-71
2021/03/25 12:19:05;;;;;;;12.48;9.45;;;22.60;29.10;;;;;;5155275;27;20023;-71
2021/03/25 12:21:32;;;;;;;18.80;12.52;;;20.80;31.10;;;;;;5154952;27;20083;-72
2021/03/25 12:23:59;;;;;;;13.50;9.55;;;;;;;;;;5154641;27;20482;-71
2021/03/25 12:26:26;;;;;;;10.80;7.90;;;17.10;35.60;;;;;;5153784;27;20020;-71
2021/03/25 12:28:52;;;;;;;12.23;9.15;;;16.30;36.60;;;;;;5155293;27;20033;-73
2021/03/25 12:31:21;;;;;;;16.30;9.73;;;16.50;37.30;;;;;;5155524;27;20031;-70
2021/03/25 12:33:47;;;;;;;13.77;9.45;;;16.00;36.70;;;;;;5153846;27;20075;-72
2021/03/25 12:36:14;;;;;;;12.35;9.98;;;15.50;38.80;;;;;;5154448;27;20491;-72
2021/03/25 12:38:41;;;;;;;9.48;7.40;;;20.50;31.30;;;;;;5154512;27;20023;-70
2021/03/25 12:41:08;;;;;;;10.18;8.27;;;22.20;29.40;;;;;;5154675;27;20047;-73
2021/03/25 12:43:35;;;;;;;13.00;10.18;;;23.80;28.00;;;;;;5153538;27;20474;-74
2021/03/25 12:46:10;;;;;;;13.43;10.60;;;19.30;29.40;;;;;;5154880;27;20034;-73
2021/03/25 12:48:37;;;;;;;10.30;8.57;;;21.50;29.80;;;;;;5154996;27;20042;-74
2021/03/25 12:51:06;;;;;;;10.95;8.15;;;21.60;29.20;;;;;;5155024;27;20054;-72
2021/03/25 12:53:33;;;;;;;14.35;9.38;;;20.70;29.90;;;;;;5155027;27;20102;-74
2021/03/25 12:56:00;;;;;;;13.30;9.48;;;;;;;;;;5153277;27;20026;-73
2021/03/25 12:58:34;;;;;;;13.32;9.30;;;;;;;;;;5153741;27;20078;-68
2021/03/25 13:01:02;;;;;;;15.13;9.68;;;;;;;;;;5153476;27;20023;-71
2021/03/25 13:03:28;;;;;;;22.15;11.43;;;;;;;;;;5154091;27;20087;-72
2021/03/25 13:05:55;;;;;;;14.52;9.38;;;;;;;;;;5154737;27;20064;-73
2021/03/25 13:08:21;;;;;;;17.33;11.93;;;;;;;;;;5145805;27;20030;-69
2021/03/25 13:10:47;;;;;;;14.13;9.73;;;;;;;;;;5132515;27;20025;-70
2021/03/25 13:13:15;;;;;;;14.27;9.75;;;;;;;;;;5134143;27;20019;-71
2021/03/25 13:15:42;;;;;;;9.68;8.60;;;;;;;;;;5134074;27;20023;-74
2021/03/25 13:18:08;;;;;;;14.82;10.02;;;;;;;;;;5132601;27;20426;-73
2021/03/25 13:20:34;;;;;;;14.88;11.45;;;;;;;;;;5133927;28;20023;-73
2021/03/25 13:23:01;;;;;;;13.40;9.18;;;;;;;;;;5133283;27;20482;-72
2021/03/25 13:25:36;;;;;;;17.35;11.95;;;23.10;25.40;;;;;;5133965;27;20071;-72
2021/03/25 13:28:03;;;;;;;12.40;9.18;;;20.20;29.60;;;;;;5132657;28;20027;-72
2021/03/25 13:30:30;;;;;;;17.50;9.63;;;19.70;30.80;;;;;;5133870;27;20020;-73
2021/03/25 13:32:56;;;;;;;14.95;9.85;;;18.30;32.60;;;;;;5133928;27;20052;-72
2021/03/25 13:35:24;;;;;;;14.93;9.60;;;17.40;35.10;;;;;;5132538;28;20027;-72
2021/03/25 13:37:50;;;;;;;13.13;8.85;;;21.20;30.40;;;;;;5132426;28;20055;-73
2021/03/25 13:40:18;;;;;;;29.80;13.05;;;20.40;29.70;;;;;;5132523;28;20100;-72
2021/03/25 13:42:44;;;;;;;19.35;10.65;;;19.40;30.10;;;;;;5133952;27;20060;-71
2021/03/25 13:45:13;;;;;;;25.60;13.18;;;19.20;29.80;;;;;;5139042;27;20101;-73
2021/03/25 13:47:39;;;;;;;20.70;10.85;;;18.10;31.90;;;;;;5153078;27;20070;-70
2021/03/25 13:50:07;;;;;;;22.65;12.50;;;17.10;34.00;;;;;;5154297;27;20373;-72